createdAt,value
2017-12-10T00:00:48.958Z,1000.3
2017-12-10T00:01:50.439Z,1000.3
2017-12-10T00:02:51.834Z,1000.3
2017-12-10T00:03:53.233Z,1000.2
2017-12-10T00:04:54.759Z,1000.1
2017-12-10T00:05:56.164Z,1000.0
2017-12-10T00:06:57.641Z,1000.1
2017-12-10T00:07:59.040Z,1000.0
2017-12-10T00:09:00.433Z,1000.1
2017-12-10T00:10:01.868Z,1000.0
2017-12-10T00:11:03.252Z,1000.0
2017-12-10T00:12:04.656Z,999.9
2017-12-10T00:13:06.087Z,999.9
2017-12-10T00:14:07.492Z,999.9
2017-12-10T00:15:08.896Z,999.9
2017-12-10T00:16:10.402Z,999.9
2017-12-10T00:17:11.800Z,999.8
2017-12-10T00:18:13.196Z,999.8
2017-12-10T00:19:14.616Z,999.8
2017-12-10T00:20:16.021Z,999.8
2017-12-10T00:21:17.412Z,999.7
2017-12-10T00:22:18.807Z,999.7
2017-12-10T00:23:20.275Z,999.7
2017-12-10T00:24:21.670Z,999.6
2017-12-10T00:25:23.153Z,999.6
2017-12-10T00:26:24.552Z,999.6
2017-12-10T00:27:26.035Z,999.7
2017-12-10T00:28:27.430Z,999.6
2017-12-10T00:29:28.916Z,999.6
2017-12-10T00:30:30.314Z,999.6
2017-12-10T00:31:31.798Z,999.5
2017-12-10T00:32:33.205Z,999.5
2017-12-10T00:33:34.689Z,999.5
2017-12-10T00:34:36.101Z,999.5
2017-12-10T00:35:37.557Z,999.4
2017-12-10T00:36:38.989Z,999.4
2017-12-10T00:37:40.441Z,999.3
2017-12-10T00:38:41.836Z,999.4
2017-12-10T00:39:43.322Z,999.3
2017-12-10T00:40:44.726Z,999.3
2017-12-10T00:41:46.202Z,999.3
2017-12-10T00:42:47.595Z,999.2
2017-12-10T00:43:49.084Z,999.3
2017-12-10T00:44:50.478Z,999.3
2017-12-10T00:45:51.965Z,999.3
2017-12-10T00:46:53.361Z,999.3
2017-12-10T00:47:54.848Z,999.2
2017-12-10T00:48:56.248Z,999.2
2017-12-10T00:49:57.727Z,999.1
2017-12-10T00:50:59.118Z,999.2
2017-12-10T00:52:00.604Z,999.1
2017-12-10T00:53:02.000Z,999.0
2017-12-10T00:54:03.511Z,999.1
2017-12-10T00:55:04.913Z,999.0
2017-12-10T00:56:06.366Z,999.0
2017-12-10T00:57:07.765Z,999.0
2017-12-10T00:58:09.244Z,998.9
2017-12-10T00:59:10.641Z,999.0
2017-12-10T01:00:12.036Z,999.0
2017-12-10T01:01:13.473Z,998.9
2017-12-10T01:02:14.861Z,998.9
2017-12-10T01:03:16.256Z,998.9
2017-12-10T01:04:17.686Z,998.9
2017-12-10T01:05:19.097Z,998.8
2017-12-10T01:06:20.481Z,998.8
2017-12-10T01:07:21.903Z,998.7
2017-12-10T01:08:23.305Z,998.7
2017-12-10T01:09:24.720Z,998.7
2017-12-10T01:10:26.610Z,998.7
2017-12-10T01:11:28.003Z,998.7
2017-12-10T01:12:29.413Z,998.7
2017-12-10T01:13:30.823Z,998.6
2017-12-10T01:14:32.208Z,998.6
2017-12-10T01:15:33.632Z,998.7
2017-12-10T01:16:35.032Z,998.6
2017-12-10T01:17:36.449Z,998.6
2017-12-10T01:18:37.952Z,998.6
2017-12-10T01:19:39.349Z,998.7
2017-12-10T01:20:40.757Z,998.6
2017-12-10T01:21:42.171Z,998.6
2017-12-10T01:22:43.566Z,998.6
2017-12-10T01:23:44.966Z,998.6
2017-12-10T01:24:46.391Z,998.5
2017-12-10T01:25:47.782Z,998.6
2017-12-10T01:26:49.213Z,998.5
2017-12-10T01:27:50.710Z,998.5
2017-12-10T01:28:52.105Z,998.5
2017-12-10T01:29:53.509Z,998.5
2017-12-10T01:30:54.929Z,998.5
2017-12-10T01:31:56.333Z,998.5
2017-12-10T01:32:57.739Z,998.6
2017-12-10T01:33:59.250Z,998.5
2017-12-10T01:35:00.646Z,998.4
2017-12-10T01:36:02.042Z,998.4
2017-12-10T01:37:03.468Z,998.4
2017-12-10T01:38:04.863Z,998.4
2017-12-10T01:39:06.260Z,998.4
2017-12-10T01:40:07.689Z,998.4
2017-12-10T01:41:09.098Z,998.4
2017-12-10T01:42:10.491Z,998.4
2017-12-10T01:43:11.906Z,998.3
2017-12-10T01:44:13.320Z,998.3
2017-12-10T01:45:14.733Z,998.3
2017-12-10T01:46:16.232Z,998.2
2017-12-10T01:47:17.630Z,998.2
2017-12-10T01:48:19.126Z,998.2
2017-12-10T01:49:20.523Z,998.2
2017-12-10T01:50:21.917Z,998.1
2017-12-10T01:51:23.430Z,998.1
2017-12-10T01:52:24.826Z,998.1
2017-12-10T01:53:26.242Z,998.1
2017-12-10T01:54:27.777Z,998.0
2017-12-10T01:55:29.185Z,998.0
2017-12-10T01:56:30.607Z,998.1
2017-12-10T01:57:32.072Z,998.0
2017-12-10T01:58:33.469Z,998.0
2017-12-10T01:59:34.864Z,997.9
2017-12-10T02:00:36.290Z,997.9
2017-12-10T02:01:37.684Z,997.9
2017-12-10T02:02:39.092Z,997.9
2017-12-10T02:03:40.521Z,997.9
2017-12-10T02:04:41.918Z,997.8
2017-12-10T02:05:43.312Z,997.8
2017-12-10T02:06:44.731Z,997.7
2017-12-10T02:07:46.121Z,997.7
2017-12-10T02:08:47.608Z,997.7
2017-12-10T02:09:49.038Z,997.7
2017-12-10T02:10:50.489Z,997.7
2017-12-10T02:11:51.885Z,997.6
2017-12-10T02:12:53.370Z,997.6
2017-12-10T02:13:54.780Z,997.6
2017-12-10T02:14:56.265Z,997.6
2017-12-10T02:15:57.658Z,997.5
2017-12-10T02:16:59.132Z,997.5
2017-12-10T02:18:00.527Z,997.5
2017-12-10T02:19:02.015Z,997.5
2017-12-10T02:20:03.415Z,997.5
2017-12-10T02:21:04.808Z,997.4
2017-12-10T02:22:06.238Z,997.4
2017-12-10T02:23:07.639Z,997.3
2017-12-10T02:24:09.051Z,997.2
2017-12-10T02:25:10.552Z,997.2
2017-12-10T02:26:11.960Z,997.2
2017-12-10T02:27:13.432Z,997.3
2017-12-10T02:28:14.829Z,997.1
2017-12-10T02:29:16.341Z,997.2
2017-12-10T02:30:17.739Z,997.1
2017-12-10T02:31:19.133Z,997.0
2017-12-10T02:32:20.657Z,996.9
2017-12-10T02:33:22.055Z,996.9
2017-12-10T02:34:23.457Z,996.8
2017-12-10T02:35:24.977Z,996.9
2017-12-10T02:36:26.376Z,996.9
2017-12-10T02:37:27.842Z,996.8
2017-12-10T02:38:29.234Z,996.8
2017-12-10T02:39:30.721Z,996.8
2017-12-10T02:40:32.149Z,996.8
2017-12-10T02:41:33.595Z,996.8
2017-12-10T02:42:34.997Z,996.8
2017-12-10T02:43:36.488Z,996.7
2017-12-10T02:44:37.874Z,996.8
2017-12-10T02:45:39.361Z,996.7
2017-12-10T02:46:40.758Z,996.7
2017-12-10T02:47:42.163Z,996.7
2017-12-10T02:48:43.578Z,996.7
2017-12-10T02:49:44.975Z,996.7
2017-12-10T02:50:46.373Z,996.7
2017-12-10T02:51:47.795Z,996.7
2017-12-10T02:52:49.194Z,996.6
2017-12-10T02:53:50.589Z,996.6
2017-12-10T02:54:52.023Z,996.6
2017-12-10T02:55:53.420Z,996.5
2017-12-10T02:56:54.817Z,996.5
2017-12-10T02:57:56.232Z,996.5
2017-12-10T02:58:57.628Z,996.4
2017-12-10T02:59:59.033Z,996.4
2017-12-10T03:01:00.452Z,996.4
2017-12-10T03:02:01.846Z,996.4
2017-12-10T03:03:03.354Z,996.3
2017-12-10T03:04:04.750Z,996.3
2017-12-10T03:05:06.212Z,996.3
2017-12-10T03:06:07.617Z,996.3
2017-12-10T03:07:09.012Z,996.3
2017-12-10T03:08:10.437Z,996.3
2017-12-10T03:09:11.833Z,996.2
2017-12-10T03:10:13.229Z,996.3
2017-12-10T03:11:14.675Z,996.2
2017-12-10T03:12:16.079Z,996.3
2017-12-10T03:13:17.471Z,996.2
2017-12-10T03:14:18.976Z,996.2
2017-12-10T03:15:20.372Z,996.2
2017-12-10T03:16:21.774Z,996.1
2017-12-10T03:17:23.192Z,996.1
2017-12-10T03:18:24.598Z,996.0
2017-12-10T03:19:26.077Z,995.9
2017-12-10T03:20:27.467Z,995.9
2017-12-10T03:21:28.954Z,995.7
2017-12-10T03:22:30.353Z,995.7
2017-12-10T03:23:31.854Z,995.7
2017-12-10T03:24:33.251Z,995.7
2017-12-10T03:25:34.715Z,995.7
2017-12-10T03:26:36.115Z,995.6
2017-12-10T03:27:37.562Z,995.6
2017-12-10T03:28:39.043Z,995.5
2017-12-10T03:29:40.438Z,995.5
2017-12-10T03:30:41.835Z,995.6
2017-12-10T03:31:43.276Z,995.6
2017-12-10T03:32:44.688Z,995.5
2017-12-10T03:33:46.142Z,995.5
2017-12-10T03:34:47.534Z,995.5
2017-12-10T03:35:49.026Z,995.5
2017-12-10T03:36:50.428Z,995.5
2017-12-10T03:37:51.824Z,995.4
2017-12-10T03:38:53.237Z,995.3
2017-12-10T03:39:54.631Z,995.3
2017-12-10T03:40:56.032Z,995.1
2017-12-10T03:41:57.454Z,995.2
2017-12-10T03:42:58.859Z,995.1
2017-12-10T03:44:00.256Z,995.3
2017-12-10T03:45:01.674Z,995.2
2017-12-10T03:46:03.079Z,995.2
2017-12-10T03:47:04.475Z,995.1
2017-12-10T03:48:05.892Z,995.0
2017-12-10T03:49:07.288Z,995.1
2017-12-10T03:50:08.681Z,995.0
2017-12-10T03:51:10.111Z,995.0
2017-12-10T03:52:11.509Z,995.0
2017-12-10T03:53:12.995Z,995.0
2017-12-10T03:54:14.388Z,995.0
2017-12-10T03:55:15.873Z,994.9
2017-12-10T03:56:17.273Z,994.8
2017-12-10T03:57:18.752Z,994.8
2017-12-10T03:58:20.183Z,994.9
2017-12-10T03:59:21.634Z,994.8
2017-12-10T04:00:23.030Z,994.8
2017-12-10T04:01:24.536Z,994.8
2017-12-10T04:02:25.936Z,994.8
2017-12-10T04:03:27.395Z,994.8
2017-12-10T04:04:28.788Z,994.7
2017-12-10T04:05:30.276Z,994.6
2017-12-10T04:06:31.674Z,994.6
2017-12-10T04:07:33.069Z,994.6
2017-12-10T04:08:34.495Z,994.6
2017-12-10T04:09:35.896Z,994.5
2017-12-10T04:10:37.296Z,994.5
2017-12-10T04:11:38.712Z,994.5
2017-12-10T04:12:40.110Z,994.5
2017-12-10T04:13:41.507Z,994.5
2017-12-10T04:14:42.933Z,994.5
2017-12-10T04:15:44.329Z,994.5
2017-12-10T04:16:45.735Z,994.4
2017-12-10T04:17:47.151Z,994.4
2017-12-10T04:18:48.546Z,994.3
2017-12-10T04:19:50.028Z,994.3
2017-12-10T04:20:51.426Z,994.3
2017-12-10T04:21:52.913Z,994.3
2017-12-10T04:22:54.309Z,994.3
2017-12-10T04:23:55.707Z,994.3
2017-12-10T04:24:57.134Z,994.3
2017-12-10T04:25:58.526Z,994.3
2017-12-10T04:26:59.921Z,994.2
2017-12-10T04:28:01.349Z,994.2
2017-12-10T04:29:02.743Z,994.2
2017-12-10T04:30:04.232Z,994.2
2017-12-10T04:31:05.644Z,994.2
2017-12-10T04:32:07.031Z,994.2
2017-12-10T04:33:08.459Z,994.1
2017-12-10T04:34:09.853Z,994.1
2017-12-10T04:35:11.270Z,994.1
2017-12-10T04:36:12.789Z,994.1
2017-12-10T04:37:14.183Z,994.1
2017-12-10T04:38:15.583Z,994.0
2017-12-10T04:39:16.989Z,994.0
2017-12-10T04:40:18.384Z,994.0
2017-12-10T04:41:19.785Z,994.0
2017-12-10T04:42:21.210Z,993.9
2017-12-10T04:43:22.603Z,993.9
2017-12-10T04:44:23.999Z,993.9
2017-12-10T04:45:25.426Z,993.8
2017-12-10T04:46:26.822Z,993.8
2017-12-10T04:47:28.215Z,993.8
2017-12-10T04:48:29.647Z,993.7
2017-12-10T04:49:31.043Z,993.8
2017-12-10T04:50:32.447Z,993.7
2017-12-10T04:51:33.864Z,993.7
2017-12-10T04:52:35.281Z,993.7
2017-12-10T04:53:36.661Z,993.5
2017-12-10T04:54:38.084Z,993.5
2017-12-10T04:55:39.479Z,993.6
2017-12-10T04:56:40.964Z,993.6
2017-12-10T04:57:42.359Z,993.5
2017-12-10T04:58:43.849Z,993.4
2017-12-10T04:59:45.244Z,993.4
2017-12-10T05:00:46.828Z,993.4
2017-12-10T05:01:48.227Z,993.4
2017-12-10T05:02:49.925Z,993.3
2017-12-10T05:03:51.325Z,993.2
2017-12-10T05:04:52.724Z,993.2
2017-12-10T05:05:54.450Z,993.2
2017-12-10T05:06:55.890Z,993.1
2017-12-10T05:07:57.306Z,993.1
2017-12-10T05:08:58.965Z,993.1
2017-12-10T05:10:00.365Z,993.0
2017-12-10T05:11:01.762Z,993.0
2017-12-10T05:12:03.286Z,993.0
2017-12-10T05:13:04.687Z,992.9
2017-12-10T05:14:06.085Z,992.9
2017-12-10T05:15:07.621Z,992.9
2017-12-10T05:16:09.000Z,992.8
2017-12-10T05:17:10.399Z,992.8
2017-12-10T05:18:11.929Z,992.8
2017-12-10T05:19:13.327Z,992.8
2017-12-10T05:20:15.013Z,992.7
2017-12-10T05:21:16.424Z,992.6
2017-12-10T05:22:18.105Z,992.7
2017-12-10T05:23:19.498Z,992.6
2017-12-10T05:24:20.895Z,992.6
2017-12-10T05:25:22.421Z,992.6
2017-12-10T05:26:23.818Z,992.5
2017-12-10T05:27:25.213Z,992.4
2017-12-10T05:28:26.745Z,992.5
2017-12-10T05:29:28.136Z,992.5
2017-12-10T05:30:29.840Z,992.4
2017-12-10T05:31:31.238Z,992.3
2017-12-10T05:32:32.632Z,992.2
2017-12-10T05:33:34.151Z,992.3
2017-12-10T05:34:35.548Z,992.3
2017-12-10T05:35:36.941Z,992.2
2017-12-10T05:36:38.472Z,992.2
2017-12-10T05:37:39.867Z,992.2
2017-12-10T05:38:41.263Z,992.2
2017-12-10T05:39:42.795Z,992.2
2017-12-10T05:40:44.188Z,992.1
2017-12-10T05:41:45.584Z,991.9
2017-12-10T05:42:47.120Z,992.0
2017-12-10T05:43:48.516Z,991.9
2017-12-10T05:44:49.909Z,991.8
2017-12-10T05:45:51.437Z,991.8
2017-12-10T05:46:52.835Z,991.8
2017-12-10T05:47:54.236Z,991.8
2017-12-10T05:48:55.757Z,991.6
2017-12-10T05:49:57.163Z,991.6
2017-12-10T05:50:58.582Z,991.6
2017-12-10T05:52:00.293Z,991.5
2017-12-10T05:53:01.686Z,991.5
2017-12-10T05:54:03.081Z,991.5
2017-12-10T05:55:04.614Z,991.4
2017-12-10T05:56:06.002Z,991.4
2017-12-10T05:57:07.423Z,991.3
2017-12-10T05:58:09.130Z,991.3
2017-12-10T05:59:10.527Z,991.2
2017-12-10T06:00:11.920Z,991.2
2017-12-10T06:01:13.451Z,991.2
2017-12-10T06:02:14.849Z,991.1
2017-12-10T06:03:16.244Z,991.2
2017-12-10T06:04:17.672Z,991.1
2017-12-10T06:05:19.067Z,991.1
2017-12-10T06:06:20.708Z,991.0
2017-12-10T06:07:22.051Z,991.0
2017-12-10T06:08:23.741Z,990.9
2017-12-10T06:09:25.139Z,991.0
2017-12-10T06:10:26.834Z,990.9
2017-12-10T06:11:28.234Z,990.9
2017-12-10T06:12:29.910Z,990.8
2017-12-10T06:13:31.303Z,990.8
2017-12-10T06:14:33.002Z,990.8
2017-12-10T06:15:34.395Z,990.8
2017-12-10T06:16:36.081Z,990.7
2017-12-10T06:17:37.475Z,990.8
2017-12-10T06:18:38.874Z,990.6
2017-12-10T06:19:40.416Z,990.7
2017-12-10T06:20:41.797Z,990.6
2017-12-10T06:21:43.190Z,990.6
2017-12-10T06:22:44.742Z,990.5
2017-12-10T06:23:46.140Z,990.5
2017-12-10T06:24:47.537Z,990.5
2017-12-10T06:25:49.044Z,990.4
2017-12-10T06:26:50.436Z,990.5
2017-12-10T06:27:51.832Z,990.4
2017-12-10T06:28:53.373Z,990.5
2017-12-10T06:29:54.760Z,990.4
2017-12-10T06:30:56.156Z,990.3
2017-12-10T06:31:57.683Z,990.4
2017-12-10T06:32:59.083Z,990.3
2017-12-10T06:34:00.476Z,990.3
2017-12-10T06:35:02.005Z,990.3
2017-12-10T06:36:03.401Z,990.1
2017-12-10T06:37:05.097Z,990.1
2017-12-10T06:38:06.495Z,990.1
2017-12-10T06:39:07.890Z,990.1
2017-12-10T06:40:09.412Z,990.1
2017-12-10T06:41:10.810Z,990.0
2017-12-10T06:42:12.198Z,990.0
2017-12-10T06:43:13.733Z,990.0
2017-12-10T06:44:15.129Z,989.9
2017-12-10T06:45:16.531Z,989.9
2017-12-10T06:46:18.052Z,989.8
2017-12-10T06:47:19.447Z,989.8
2017-12-10T06:48:21.139Z,989.8
2017-12-10T06:49:22.539Z,989.7
2017-12-10T06:50:23.934Z,989.7
2017-12-10T06:51:25.368Z,989.7
2017-12-10T06:52:26.762Z,989.6
2017-12-10T06:53:28.159Z,989.7
2017-12-10T06:54:29.781Z,989.7
2017-12-10T06:55:31.174Z,989.6
2017-12-10T06:56:32.568Z,989.6
2017-12-10T06:57:34.102Z,989.6
2017-12-10T06:58:35.509Z,989.5
2017-12-10T06:59:36.908Z,989.6
2017-12-10T07:00:38.451Z,989.5
2017-12-10T07:01:39.860Z,989.5
2017-12-10T07:02:41.254Z,989.4
2017-12-10T07:03:42.860Z,989.5
2017-12-10T07:04:44.256Z,989.5
2017-12-10T07:05:45.649Z,989.4
2017-12-10T07:06:47.280Z,989.3
2017-12-10T07:07:48.681Z,989.3
2017-12-10T07:08:50.082Z,989.4
2017-12-10T07:09:51.592Z,989.3
2017-12-10T07:10:53.005Z,989.3
2017-12-10T07:11:54.399Z,989.3
2017-12-10T07:12:55.927Z,989.2
2017-12-10T07:13:57.374Z,989.3
2017-12-10T07:14:58.774Z,989.2
2017-12-10T07:16:00.440Z,989.2
2017-12-10T07:17:01.840Z,989.2
2017-12-10T07:18:03.544Z,989.1
2017-12-10T07:19:04.936Z,989.1
2017-12-10T07:20:06.332Z,989.1
2017-12-10T07:21:07.847Z,989.0
2017-12-10T07:22:09.247Z,989.0
2017-12-10T07:23:10.643Z,989.0
2017-12-10T07:24:12.185Z,988.9
2017-12-10T07:25:13.578Z,988.9
2017-12-10T07:26:15.271Z,988.8
2017-12-10T07:27:16.664Z,988.8
2017-12-10T07:28:18.358Z,988.8
2017-12-10T07:29:19.756Z,988.8
2017-12-10T07:30:21.438Z,988.8
2017-12-10T07:31:22.835Z,988.6
2017-12-10T07:32:24.310Z,988.6
2017-12-10T07:33:25.703Z,988.6
2017-12-10T07:34:27.207Z,988.5
2017-12-10T07:35:28.598Z,988.5
2017-12-10T07:36:30.071Z,988.5
2017-12-10T07:37:31.470Z,988.4
2017-12-10T07:38:32.979Z,988.3
2017-12-10T07:39:34.376Z,988.3
2017-12-10T07:40:35.777Z,988.3
2017-12-10T07:41:37.271Z,988.2
2017-12-10T07:42:38.674Z,988.3
2017-12-10T07:43:40.073Z,988.1
2017-12-10T07:44:41.490Z,988.1
2017-12-10T07:45:42.884Z,988.1
2017-12-10T07:46:44.314Z,988.1
2017-12-10T07:47:45.835Z,988.1
2017-12-10T07:48:47.232Z,988.0
2017-12-10T07:49:48.640Z,988.0
2017-12-10T07:50:50.155Z,987.9
2017-12-10T07:51:51.540Z,987.9
2017-12-10T07:52:53.013Z,987.9
2017-12-10T07:53:54.429Z,987.8
2017-12-10T07:54:55.830Z,987.7
2017-12-10T07:55:57.339Z,987.7
2017-12-10T07:56:58.747Z,987.6
2017-12-10T07:58:00.154Z,987.6
2017-12-10T07:59:01.657Z,987.6
2017-12-10T08:00:03.072Z,987.6
2017-12-10T08:01:04.468Z,987.4
2017-12-10T08:02:05.977Z,987.4
2017-12-10T08:03:07.376Z,987.4
2017-12-10T08:04:08.777Z,987.3
2017-12-10T08:05:10.197Z,987.3
2017-12-10T08:06:11.596Z,987.3
2017-12-10T08:07:13.075Z,987.3
2017-12-10T08:08:14.511Z,987.2
2017-12-10T08:09:15.983Z,987.2
2017-12-10T08:10:17.382Z,987.1
2017-12-10T08:11:18.837Z,987.1
2017-12-10T08:12:20.253Z,987.1
2017-12-10T08:13:21.741Z,987.0
2017-12-10T08:14:23.111Z,987.0
2017-12-10T08:15:24.615Z,987.0
2017-12-10T08:16:26.018Z,986.8
2017-12-10T08:17:27.905Z,986.9
2017-12-10T08:18:29.930Z,986.8
2017-12-10T08:19:33.037Z,986.8
2017-12-10T08:20:36.594Z,986.8
2017-12-10T08:21:38.919Z,986.7
2017-12-10T08:22:40.313Z,986.6
2017-12-10T08:23:41.789Z,986.7
2017-12-10T08:24:43.189Z,986.6
2017-12-10T08:25:44.638Z,986.6
2017-12-10T08:26:46.037Z,986.6
2017-12-10T08:27:47.531Z,986.5
2017-12-10T08:28:48.971Z,986.6
2017-12-10T08:29:50.406Z,986.5
2017-12-10T08:30:51.807Z,986.4
2017-12-10T08:31:53.304Z,986.4
2017-12-10T08:32:54.672Z,986.3
2017-12-10T08:33:56.182Z,986.2
2017-12-10T08:34:57.582Z,986.2
2017-12-10T08:35:59.039Z,986.2
2017-12-10T08:37:00.438Z,986.1
2017-12-10T08:38:01.918Z,986.1
2017-12-10T08:39:03.317Z,986.0
2017-12-10T08:40:04.802Z,985.9
2017-12-10T08:41:06.216Z,986.0
2017-12-10T08:42:07.655Z,985.8
2017-12-10T08:43:09.120Z,985.8
2017-12-10T08:44:10.524Z,985.7
2017-12-10T08:45:11.923Z,985.7
2017-12-10T08:46:13.340Z,985.7
2017-12-10T08:47:14.748Z,985.6
2017-12-10T08:48:16.231Z,985.5
2017-12-10T08:49:17.681Z,985.5
2017-12-10T08:50:19.102Z,985.5
2017-12-10T08:51:20.508Z,985.4
2017-12-10T08:52:21.906Z,985.4
2017-12-10T08:53:23.320Z,985.4
2017-12-10T08:54:24.728Z,985.3
2017-12-10T08:55:26.126Z,985.3
2017-12-10T08:56:27.640Z,985.3
2017-12-10T08:57:29.038Z,985.2
2017-12-10T08:58:30.534Z,985.2
2017-12-10T08:59:31.938Z,985.1
2017-12-10T09:00:33.402Z,985.0
2017-12-10T09:01:34.801Z,984.7
2017-12-10T09:02:36.202Z,984.6
2017-12-10T09:03:37.628Z,984.6
2017-12-10T09:04:39.027Z,984.6
2017-12-10T09:05:40.428Z,984.6
2017-12-10T09:06:41.970Z,984.5
2017-12-10T09:07:43.381Z,984.4
2017-12-10T09:08:44.826Z,984.4
2017-12-10T09:09:46.229Z,984.3
2017-12-10T09:10:47.628Z,984.3
2017-12-10T09:11:49.043Z,984.2
2017-12-10T09:12:50.450Z,984.1
2017-12-10T09:13:52.251Z,984.1
2017-12-10T09:14:53.674Z,984.1
2017-12-10T09:15:55.074Z,984.1
2017-12-10T09:16:56.471Z,983.9
2017-12-10T09:17:57.890Z,983.9
2017-12-10T09:18:59.293Z,983.8
2017-12-10T09:20:00.693Z,983.8
2017-12-10T09:21:02.109Z,983.8
2017-12-10T09:22:03.506Z,983.7
2017-12-10T09:23:04.954Z,983.7
2017-12-10T09:24:06.471Z,983.6
2017-12-10T09:25:07.872Z,983.6
2017-12-10T09:26:09.269Z,983.5
2017-12-10T09:27:10.773Z,983.6
2017-12-10T09:28:12.199Z,983.5
2017-12-10T09:29:13.644Z,983.4
2017-12-10T09:30:15.044Z,983.3
2017-12-10T09:31:16.512Z,983.2
2017-12-10T09:32:17.917Z,983.3
2017-12-10T09:33:19.392Z,983.1
2017-12-10T09:34:20.806Z,983.1
2017-12-10T09:35:22.299Z,983.1
2017-12-10T09:36:23.701Z,983.0
2017-12-10T09:37:25.105Z,983.0
2017-12-10T09:38:26.597Z,983.0
2017-12-10T09:39:28.002Z,982.9
2017-12-10T09:40:29.407Z,982.9
2017-12-10T09:41:30.930Z,982.8
2017-12-10T09:42:32.315Z,982.8
2017-12-10T09:43:33.799Z,982.8
2017-12-10T09:44:35.221Z,982.7
2017-12-10T09:45:36.680Z,982.8
2017-12-10T09:46:38.082Z,982.7
2017-12-10T09:47:39.559Z,982.7
2017-12-10T09:48:40.956Z,982.7
2017-12-10T09:49:42.440Z,982.6
2017-12-10T09:50:43.847Z,982.5
2017-12-10T09:51:45.326Z,982.5
2017-12-10T09:52:46.731Z,982.4
2017-12-10T09:53:48.227Z,982.5
2017-12-10T09:54:49.632Z,982.4
2017-12-10T09:55:51.106Z,982.2
2017-12-10T09:56:52.503Z,982.2
2017-12-10T09:57:53.907Z,982.1
2017-12-10T09:58:55.401Z,982.2
2017-12-10T09:59:56.857Z,982.2
2017-12-10T10:00:58.207Z,982.2
2017-12-10T10:01:59.621Z,982.1
2017-12-10T10:03:01.019Z,981.9
2017-12-10T10:04:02.502Z,981.9
2017-12-10T10:05:03.916Z,981.9
2017-12-10T10:06:05.383Z,981.9
2017-12-10T10:07:06.790Z,981.8
2017-12-10T10:08:08.334Z,981.8
2017-12-10T10:09:09.675Z,981.7
2017-12-10T10:10:11.150Z,981.7
2017-12-10T10:11:12.560Z,981.6
2017-12-10T10:12:13.960Z,981.5
2017-12-10T10:13:15.465Z,981.6
2017-12-10T10:14:16.866Z,981.5
2017-12-10T10:15:18.287Z,981.5
2017-12-10T10:16:19.786Z,981.5
2017-12-10T10:17:21.203Z,981.4
2017-12-10T10:18:22.590Z,981.3
2017-12-10T10:19:24.004Z,981.3
2017-12-10T10:20:25.407Z,981.3
2017-12-10T10:21:26.804Z,981.2
2017-12-10T10:22:28.257Z,981.2
2017-12-10T10:23:29.655Z,981.1
2017-12-10T10:24:31.140Z,981.1
2017-12-10T10:25:32.535Z,981.1
2017-12-10T10:26:33.992Z,980.9
2017-12-10T10:27:35.397Z,980.9
2017-12-10T10:28:36.816Z,980.9
2017-12-10T10:29:38.335Z,980.7
2017-12-10T10:30:39.731Z,980.7
2017-12-10T10:31:41.126Z,980.7
2017-12-10T10:32:42.624Z,980.7
2017-12-10T10:33:44.039Z,980.7
2017-12-10T10:34:45.430Z,980.5
2017-12-10T10:35:46.847Z,980.5
2017-12-10T10:36:48.246Z,980.4
2017-12-10T10:37:49.703Z,980.3
2017-12-10T10:38:51.093Z,980.2
2017-12-10T10:39:52.495Z,980.2
2017-12-10T10:40:53.885Z,980.1
2017-12-10T10:41:55.388Z,980.1
2017-12-10T10:42:56.786Z,980.0
2017-12-10T10:43:58.195Z,979.9
2017-12-10T10:44:59.606Z,979.9
2017-12-10T10:46:01.010Z,979.8
2017-12-10T10:47:02.417Z,979.7
2017-12-10T10:48:03.849Z,979.6
2017-12-10T10:49:05.260Z,979.6
2017-12-10T10:50:06.705Z,979.5
2017-12-10T10:51:08.109Z,979.5
2017-12-10T10:52:09.509Z,979.4
2017-12-10T10:53:10.928Z,979.4
2017-12-10T10:54:12.320Z,979.4
2017-12-10T10:55:13.721Z,979.3
2017-12-10T10:56:15.144Z,979.2
2017-12-10T10:57:16.550Z,979.0
2017-12-10T10:58:17.954Z,978.9
2017-12-10T10:59:19.468Z,978.9
2017-12-10T11:00:20.864Z,978.9
2017-12-10T11:01:22.344Z,978.8
2017-12-10T11:02:23.752Z,978.7
2017-12-10T11:03:25.223Z,978.6
2017-12-10T11:04:26.625Z,978.5
2017-12-10T11:05:28.042Z,978.5
2017-12-10T11:06:29.436Z,978.5
2017-12-10T11:07:30.885Z,978.3
2017-12-10T11:08:32.311Z,978.3
2017-12-10T11:09:33.764Z,978.2
2017-12-10T11:10:35.163Z,978.0
2017-12-10T11:11:36.716Z,978.0
2017-12-10T11:12:38.152Z,978.0
2017-12-10T11:13:41.804Z,977.9
2017-12-10T11:14:43.208Z,977.9
2017-12-10T11:15:44.695Z,977.8
2017-12-10T11:16:46.728Z,977.7
2017-12-10T11:17:48.155Z,977.7
2017-12-10T11:18:49.554Z,977.6
2017-12-10T11:19:51.061Z,977.6
2017-12-10T11:20:52.459Z,977.6
2017-12-10T11:21:53.916Z,977.5
2017-12-10T11:22:55.315Z,977.5
2017-12-10T11:23:56.715Z,977.4
2017-12-10T11:24:58.171Z,977.4
2017-12-10T11:25:59.557Z,977.3
2017-12-10T11:27:00.934Z,977.3
2017-12-10T11:28:02.356Z,977.2
2017-12-10T11:29:03.751Z,977.1
2017-12-10T11:30:05.616Z,977.2
2017-12-10T11:31:07.015Z,977.2
2017-12-10T11:32:08.531Z,977.1
2017-12-10T11:33:09.927Z,977.1
2017-12-10T11:34:11.406Z,977.0
2017-12-10T11:35:12.814Z,976.9
2017-12-10T11:36:16.852Z,976.8
2017-12-10T11:37:18.023Z,976.7
2017-12-10T11:38:19.629Z,976.7
2017-12-10T11:39:20.963Z,976.6
2017-12-10T11:40:22.401Z,976.5
2017-12-10T11:41:23.802Z,976.5
2017-12-10T11:42:25.283Z,976.4
2017-12-10T11:43:26.684Z,976.3
2017-12-10T11:44:28.178Z,976.3
2017-12-10T11:45:29.585Z,976.3
2017-12-10T11:46:31.046Z,976.3
2017-12-10T11:47:32.463Z,976.3
2017-12-10T11:48:33.875Z,976.3
2017-12-10T11:49:35.368Z,976.2
2017-12-10T11:50:36.784Z,976.1
2017-12-10T11:51:38.158Z,976.1
2017-12-10T11:52:39.583Z,976.0
2017-12-10T11:53:41.007Z,975.9
2017-12-10T11:54:42.466Z,975.8
2017-12-10T11:55:43.867Z,975.7
2017-12-10T11:56:45.361Z,975.7
2017-12-10T11:57:46.760Z,975.7
2017-12-10T11:58:48.159Z,975.8
2017-12-10T11:59:49.670Z,975.8
2017-12-10T12:00:51.071Z,975.8
2017-12-10T12:01:52.504Z,975.8
2017-12-10T12:02:53.989Z,975.8
2017-12-10T12:03:55.388Z,975.7
2017-12-10T12:04:56.785Z,975.7
2017-12-10T12:05:58.207Z,975.7
2017-12-10T12:06:59.609Z,975.7
2017-12-10T12:08:01.011Z,975.7
2017-12-10T12:09:02.459Z,975.7
2017-12-10T12:10:03.860Z,975.6
2017-12-10T12:11:05.258Z,975.6
2017-12-10T12:12:06.769Z,975.5
2017-12-10T12:13:08.167Z,975.5
2017-12-10T12:14:09.587Z,975.4
2017-12-10T12:15:11.069Z,975.5
2017-12-10T12:16:12.509Z,975.4
2017-12-10T12:17:13.902Z,975.4
2017-12-10T12:18:15.389Z,975.4
2017-12-10T12:19:16.841Z,975.4
2017-12-10T12:20:18.272Z,975.3
2017-12-10T12:21:19.693Z,975.4
2017-12-10T12:22:21.156Z,975.3
2017-12-10T12:23:22.561Z,975.3
2017-12-10T12:24:23.982Z,975.2
2017-12-10T12:25:25.477Z,975.2
2017-12-10T12:26:26.873Z,975.0
2017-12-10T12:27:28.281Z,975.0
2017-12-10T12:28:29.799Z,975.0
2017-12-10T12:29:31.195Z,974.9
2017-12-10T12:30:32.699Z,975.0
2017-12-10T12:31:34.075Z,974.9
2017-12-10T12:32:35.555Z,974.9
2017-12-10T12:33:37.024Z,974.8
2017-12-10T12:34:38.439Z,974.8
2017-12-10T12:35:39.838Z,974.8
2017-12-10T12:36:41.375Z,974.7
2017-12-10T12:37:42.926Z,974.8
2017-12-10T12:38:44.312Z,974.7
2017-12-10T12:39:45.861Z,974.6
2017-12-10T12:40:47.232Z,974.6
2017-12-10T12:41:48.740Z,974.6
2017-12-10T12:42:50.137Z,974.5
2017-12-10T12:43:51.646Z,974.4
2017-12-10T12:44:53.110Z,974.5
2017-12-10T12:45:54.603Z,974.4
2017-12-10T12:46:55.997Z,974.3
2017-12-10T12:47:57.534Z,974.3
2017-12-10T12:48:58.929Z,974.3
2017-12-10T12:50:00.364Z,974.2
2017-12-10T12:51:01.782Z,974.2
2017-12-10T12:52:03.262Z,974.3
2017-12-10T12:53:04.669Z,974.3
2017-12-10T12:54:06.084Z,974.4
2017-12-10T12:55:07.906Z,974.2
2017-12-10T12:56:09.306Z,974.1
2017-12-10T12:57:10.706Z,974.2
2017-12-10T12:58:12.182Z,974.1
2017-12-10T12:59:13.656Z,974.1
2017-12-10T13:00:15.187Z,974.0
2017-12-10T13:01:16.589Z,974.0
2017-12-10T13:02:18.045Z,974.0
2017-12-10T13:03:19.442Z,973.9
2017-12-10T13:04:21.331Z,973.9
2017-12-10T13:05:22.805Z,973.9
2017-12-10T13:06:24.204Z,973.7
2017-12-10T13:07:25.617Z,973.8
2017-12-10T13:08:27.204Z,973.8
2017-12-10T13:09:28.576Z,973.8
2017-12-10T13:10:30.080Z,973.6
2017-12-10T13:11:31.485Z,973.6